sensor_id;sensor_type;location;lat;lon;timestamp;temperature;humidity
74294;DHT22;64044;59.904;10.738;2022-12-31T00:01:27;8.00;78.00
74294;DHT22;64044;59.904;10.738;2022-12-31T00:03:54;8.10;78.10
74294;DHT22;64044;59.904;10.738;2022-12-31T00:06:26;8.10;78.30
74294;DHT22;64044;59.904;10.738;2022-12-31T00:08:53;8.10;78.20
74294;DHT22;64044;59.904;10.738;2022-12-31T00:11:20;8.10;78.20
74294;DHT22;64044;59.904;10.738;2022-12-31T00:13:46;8.10;78.20
74294;DHT22;64044;59.904;10.738;2022-12-31T00:19:10;8.10;78.40
74294;DHT22;64044;59.904;10.738;2022-12-31T00:21:36;8.10;78.30
74294;DHT22;64044;59.904;10.738;2022-12-31T00:24:03;8.10;78.60
74294;DHT22;64044;59.904;10.738;2022-12-31T00:26:54;8.20;78.60
74294;DHT22;64044;59.904;10.738;2022-12-31T00:29:20;8.20;78.80
74294;DHT22;64044;59.904;10.738;2022-12-31T00:31:45;8.20;78.70
74294;DHT22;64044;59.904;10.738;2022-12-31T00:34:11;8.30;78.70
74294;DHT22;64044;59.904;10.738;2022-12-31T00:36:38;8.20;78.80
74294;DHT22;64044;59.904;10.738;2022-12-31T00:39:05;8.30;79.00
74294;DHT22;64044;59.904;10.738;2022-12-31T00:41:32;8.30;79.00
74294;DHT22;64044;59.904;10.738;2022-12-31T00:43:57;8.30;78.90
74294;DHT22;64044;59.904;10.738;2022-12-31T00:46:24;8.30;79.10
74294;DHT22;64044;59.904;10.738;2022-12-31T00:48:50;8.30;79.00
74294;DHT22;64044;59.904;10.738;2022-12-31T00:51:18;8.30;79.20
74294;DHT22;64044;59.904;10.738;2022-12-31T00:53:44;8.40;79.50
74294;DHT22;64044;59.904;10.738;2022-12-31T00:58:38;8.40;79.90
74294;DHT22;64044;59.904;10.738;2022-12-31T01:01:13;8.50;80.00
74294;DHT22;64044;59.904;10.738;2022-12-31T01:03:39;8.50;80.00
74294;DHT22;64044;59.904;10.738;2022-12-31T01:06:05;8.50;80.10
74294;DHT22;64044;59.904;10.738;2022-12-31T01:08:31;8.60;80.10
74294;DHT22;64044;59.904;10.738;2022-12-31T01:10:58;8.50;80.20
74294;DHT22;64044;59.904;10.738;2022-12-31T01:13:43;8.50;80.30
74294;DHT22;64044;59.904;10.738;2022-12-31T01:16:10;8.60;80.60
74294;DHT22;64044;59.904;10.738;2022-12-31T01:18:37;8.60;81.00
74294;DHT22;64044;59.904;10.738;2022-12-31T01:21:06;8.60;81.10
74294;DHT22;64044;59.904;10.738;2022-12-31T01:23:32;8.60;81.50
74294;DHT22;64044;59.904;10.738;2022-12-31T01:26:00;8.60;81.70
74294;DHT22;64044;59.904;10.738;2022-12-31T01:28:26;8.60;82.10
74294;DHT22;64044;59.904;10.738;2022-12-31T01:30:52;8.60;82.10
74294;DHT22;64044;59.904;10.738;2022-12-31T01:33:18;8.60;82.20
74294;DHT22;64044;59.904;10.738;2022-12-31T01:35:44;8.60;82.60
74294;DHT22;64044;59.904;10.738;2022-12-31T01:38:09;8.70;82.70
74294;DHT22;64044;59.904;10.738;2022-12-31T01:40:36;8.70;83.00
74294;DHT22;64044;59.904;10.738;2022-12-31T01:43:02;8.70;83.20
74294;DHT22;64044;59.904;10.738;2022-12-31T01:45:28;8.80;83.20
74294;DHT22;64044;59.904;10.738;2022-12-31T01:47:56;8.80;83.20
74294;DHT22;64044;59.904;10.738;2022-12-31T01:50:29;8.80;83.20
74294;DHT22;64044;59.904;10.738;2022-12-31T01:52:59;8.80;83.20
74294;DHT22;64044;59.904;10.738;2022-12-31T01:55:35;8.80;83.20
74294;DHT22;64044;59.904;10.738;2022-12-31T01:58:10;8.90;82.90
74294;DHT22;64044;59.904;10.738;2022-12-31T02:00:37;8.80;82.70
74294;DHT22;64044;59.904;10.738;2022-12-31T02:03:04;8.80;82.40
74294;DHT22;64044;59.904;10.738;2022-12-31T02:05:50;8.80;82.40
74294;DHT22;64044;59.904;10.738;2022-12-31T02:08:17;8.80;82.60
74294;DHT22;64044;59.904;10.738;2022-12-31T02:10:43;8.80;82.50
74294;DHT22;64044;59.904;10.738;2022-12-31T02:13:09;8.80;82.70
74294;DHT22;64044;59.904;10.738;2022-12-31T02:15:59;8.80;82.60
74294;DHT22;64044;59.904;10.738;2022-12-31T02:21:46;8.80;82.50
74294;DHT22;64044;59.904;10.738;2022-12-31T02:30:37;8.80;82.50
74294;DHT22;64044;59.904;10.738;2022-12-31T02:35:56;8.80;82.20
74294;DHT22;64044;59.904;10.738;2022-12-31T02:38:49;8.80;82.10
74294;DHT22;64044;59.904;10.738;2022-12-31T02:41:17;8.80;81.80
74294;DHT22;64044;59.904;10.738;2022-12-31T02:52:49;8.80;81.70
74294;DHT22;64044;59.904;10.738;2022-12-31T03:01:22;8.80;81.20
74294;DHT22;64044;59.904;10.738;2022-12-31T03:04:08;8.80;81.50
74294;DHT22;64044;59.904;10.738;2022-12-31T03:06:54;8.80;81.70
74294;DHT22;64044;59.904;10.738;2022-12-31T03:09:20;8.80;81.90
74294;DHT22;64044;59.904;10.738;2022-12-31T03:11:46;8.80;81.90
74294;DHT22;64044;59.904;10.738;2022-12-31T03:14:30;8.80;81.80
74294;DHT22;64044;59.904;10.738;2022-12-31T03:16:56;8.90;81.70
74294;DHT22;64044;59.904;10.738;2022-12-31T03:19:22;8.90;81.50
74294;DHT22;64044;59.904;10.738;2022-12-31T03:22:09;9.00;81.30
74294;DHT22;64044;59.904;10.738;2022-12-31T03:24:58;9.00;81.10
74294;DHT22;64044;59.904;10.738;2022-12-31T03:27:43;9.00;80.70
74294;DHT22;64044;59.904;10.738;2022-12-31T03:30:11;9.10;80.40
74294;DHT22;64044;59.904;10.738;2022-12-31T03:32:37;9.10;80.20
74294;DHT22;64044;59.904;10.738;2022-12-31T03:35:04;9.10;80.00
74294;DHT22;64044;59.904;10.738;2022-12-31T03:37:30;9.10;79.80
74294;DHT22;64044;59.904;10.738;2022-12-31T03:39:56;9.10;79.60
74294;DHT22;64044;59.904;10.738;2022-12-31T03:42:22;9.10;79.50
74294;DHT22;64044;59.904;10.738;2022-12-31T03:44:47;9.10;79.20
74294;DHT22;64044;59.904;10.738;2022-12-31T03:47:13;9.10;79.10
74294;DHT22;64044;59.904;10.738;2022-12-31T03:49:39;9.10;78.90
74294;DHT22;64044;59.904;10.738;2022-12-31T03:52:04;9.10;78.80
74294;DHT22;64044;59.904;10.738;2022-12-31T03:54:31;9.10;78.70
74294;DHT22;64044;59.904;10.738;2022-12-31T03:56:57;9.10;78.60
74294;DHT22;64044;59.904;10.738;2022-12-31T03:59:22;9.10;78.50
74294;DHT22;64044;59.904;10.738;2022-12-31T04:01:48;9.10;78.30
74294;DHT22;64044;59.904;10.738;2022-12-31T04:04:14;9.10;78.30
74294;DHT22;64044;59.904;10.738;2022-12-31T04:06:39;9.10;78.20
74294;DHT22;64044;59.904;10.738;2022-12-31T04:09:05;9.10;78.20
74294;DHT22;64044;59.904;10.738;2022-12-31T04:11:31;9.10;78.10
74294;DHT22;64044;59.904;10.738;2022-12-31T04:13:56;9.10;78.00
74294;DHT22;64044;59.904;10.738;2022-12-31T04:16:25;9.10;78.00
74294;DHT22;64044;59.904;10.738;2022-12-31T04:18:51;9.00;77.80
74294;DHT22;64044;59.904;10.738;2022-12-31T04:21:16;9.00;77.60
74294;DHT22;64044;59.904;10.738;2022-12-31T04:23:42;9.00;77.50
74294;DHT22;64044;59.904;10.738;2022-12-31T04:26:08;9.00;77.30
74294;DHT22;64044;59.904;10.738;2022-12-31T04:28:34;9.00;77.30
74294;DHT22;64044;59.904;10.738;2022-12-31T04:30:59;8.90;77.10
74294;DHT22;64044;59.904;10.738;2022-12-31T04:33:25;8.90;77.00
74294;DHT22;64044;59.904;10.738;2022-12-31T04:35:51;8.80;76.80
74294;DHT22;64044;59.904;10.738;2022-12-31T04:38:16;8.80;76.70
74294;DHT22;64044;59.904;10.738;2022-12-31T04:40:44;8.80;76.70
74294;DHT22;64044;59.904;10.738;2022-12-31T04:43:28;8.70;76.60
74294;DHT22;64044;59.904;10.738;2022-12-31T04:45:54;8.70;76.50
74294;DHT22;64044;59.904;10.738;2022-12-31T04:48:19;8.70;76.40
74294;DHT22;64044;59.904;10.738;2022-12-31T04:50:45;8.70;76.40
74294;DHT22;64044;59.904;10.738;2022-12-31T04:53:11;8.70;76.30
74294;DHT22;64044;59.904;10.738;2022-12-31T04:55:39;8.60;76.20
74294;DHT22;64044;59.904;10.738;2022-12-31T04:58:05;8.60;76.20
74294;DHT22;64044;59.904;10.738;2022-12-31T05:00:31;8.50;76.20
74294;DHT22;64044;59.904;10.738;2022-12-31T05:02:57;8.50;76.20
74294;DHT22;64044;59.904;10.738;2022-12-31T05:05:22;8.50;76.30
74294;DHT22;64044;59.904;10.738;2022-12-31T05:07:48;8.40;76.20
74294;DHT22;64044;59.904;10.738;2022-12-31T05:10:14;8.40;76.30
74294;DHT22;64044;59.904;10.738;2022-12-31T05:12:39;8.40;76.30
74294;DHT22;64044;59.904;10.738;2022-12-31T05:15:06;8.30;76.30
74294;DHT22;64044;59.904;10.738;2022-12-31T05:17:32;8.30;76.20
74294;DHT22;64044;59.904;10.738;2022-12-31T05:19:57;8.30;76.30
74294;DHT22;64044;59.904;10.738;2022-12-31T05:22:23;8.20;76.30
74294;DHT22;64044;59.904;10.738;2022-12-31T05:24:58;8.20;76.40
74294;DHT22;64044;59.904;10.738;2022-12-31T05:27:25;8.20;76.50
74294;DHT22;64044;59.904;10.738;2022-12-31T05:29:52;8.10;76.50
74294;DHT22;64044;59.904;10.738;2022-12-31T05:32:17;8.10;76.50
74294;DHT22;64044;59.904;10.738;2022-12-31T05:34:43;8.00;76.70
74294;DHT22;64044;59.904;10.738;2022-12-31T05:37:09;8.10;76.80
74294;DHT22;64044;59.904;10.738;2022-12-31T05:39:36;8.00;76.80
74294;DHT22;64044;59.904;10.738;2022-12-31T05:42:02;8.00;76.80
74294;DHT22;64044;59.904;10.738;2022-12-31T05:44:27;7.90;76.90
74294;DHT22;64044;59.904;10.738;2022-12-31T05:46:53;7.90;77.00
74294;DHT22;64044;59.904;10.738;2022-12-31T05:49:19;7.90;77.10
74294;DHT22;64044;59.904;10.738;2022-12-31T05:51:44;7.90;77.10
74294;DHT22;64044;59.904;10.738;2022-12-31T05:54:10;7.90;77.20
74294;DHT22;64044;59.904;10.738;2022-12-31T05:56:36;7.90;77.20
74294;DHT22;64044;59.904;10.738;2022-12-31T05:59:01;7.90;77.20
74294;DHT22;64044;59.904;10.738;2022-12-31T06:01:27;7.90;77.20
74294;DHT22;64044;59.904;10.738;2022-12-31T06:03:53;7.90;77.10
74294;DHT22;64044;59.904;10.738;2022-12-31T06:06:19;7.90;77.00
74294;DHT22;64044;59.904;10.738;2022-12-31T06:08:48;7.90;77.10
74294;DHT22;64044;59.904;10.738;2022-12-31T06:11:14;7.90;77.20
74294;DHT22;64044;59.904;10.738;2022-12-31T06:13:40;7.90;77.10
74294;DHT22;64044;59.904;10.738;2022-12-31T06:16:07;7.90;77.10
74294;DHT22;64044;59.904;10.738;2022-12-31T06:18:33;7.90;77.00
74294;DHT22;64044;59.904;10.738;2022-12-31T06:20:59;7.90;77.00
74294;DHT22;64044;59.904;10.738;2022-12-31T06:23:25;7.90;77.00
74294;DHT22;64044;59.904;10.738;2022-12-31T06:25:51;7.90;76.90
74294;DHT22;64044;59.904;10.738;2022-12-31T06:28:16;7.90;76.70
74294;DHT22;64044;59.904;10.738;2022-12-31T06:30:42;7.90;76.70
74294;DHT22;64044;59.904;10.738;2022-12-31T06:33:08;7.90;76.70
74294;DHT22;64044;59.904;10.738;2022-12-31T06:35:33;7.90;76.60
74294;DHT22;64044;59.904;10.738;2022-12-31T06:37:59;7.90;76.40
74294;DHT22;64044;59.904;10.738;2022-12-31T06:40:25;7.80;76.30
74294;DHT22;64044;59.904;10.738;2022-12-31T06:42:51;7.80;76.20
74294;DHT22;64044;59.904;10.738;2022-12-31T06:45:18;7.80;76.20
74294;DHT22;64044;59.904;10.738;2022-12-31T06:47:47;7.80;76.30
74294;DHT22;64044;59.904;10.738;2022-12-31T06:50:12;7.70;76.30
74294;DHT22;64044;59.904;10.738;2022-12-31T06:52:38;7.70;76.30
74294;DHT22;64044;59.904;10.738;2022-12-31T06:55:04;7.70;76.30
74294;DHT22;64044;59.904;10.738;2022-12-31T06:57:30;7.60;76.20
74294;DHT22;64044;59.904;10.738;2022-12-31T06:59:56;7.60;76.20
74294;DHT22;64044;59.904;10.738;2022-12-31T07:02:35;7.60;76.30
74294;DHT22;64044;59.904;10.738;2022-12-31T07:07:34;7.60;76.30
74294;DHT22;64044;59.904;10.738;2022-12-31T07:15:43;7.50;76.10
74294;DHT22;64044;59.904;10.738;2022-12-31T07:18:19;7.60;76.00
74294;DHT22;64044;59.904;10.738;2022-12-31T07:20:46;7.50;75.90
74294;DHT22;64044;59.904;10.738;2022-12-31T07:23:12;7.50;75.90
74294;DHT22;64044;59.904;10.738;2022-12-31T07:25:42;7.50;75.80
74294;DHT22;64044;59.904;10.738;2022-12-31T07:39:15;7.60;75.20
74294;DHT22;64044;59.904;10.738;2022-12-31T07:46:55;7.60;74.70
74294;DHT22;64044;59.904;10.738;2022-12-31T07:49:22;7.60;74.60
74294;DHT22;64044;59.904;10.738;2022-12-31T07:51:49;7.60;74.50
74294;DHT22;64044;59.904;10.738;2022-12-31T07:54:15;7.70;74.40
74294;DHT22;64044;59.904;10.738;2022-12-31T07:56:41;7.70;74.20
74294;DHT22;64044;59.904;10.738;2022-12-31T07:59:22;7.70;73.90
74294;DHT22;64044;59.904;10.738;2022-12-31T08:07:47;7.80;73.00
74294;DHT22;64044;59.904;10.738;2022-12-31T08:13:09;7.80;72.20
74294;DHT22;64044;59.904;10.738;2022-12-31T08:15:39;7.90;72.20
74294;DHT22;64044;59.904;10.738;2022-12-31T08:18:05;7.90;71.60
74294;DHT22;64044;59.904;10.738;2022-12-31T08:20:33;7.90;71.30
74294;DHT22;64044;59.904;10.738;2022-12-31T08:23:23;8.00;71.30
74294;DHT22;64044;59.904;10.738;2022-12-31T08:28:55;8.00;71.00
74294;DHT22;64044;59.904;10.738;2022-12-31T08:32:04;8.00;70.90
74294;DHT22;64044;59.904;10.738;2022-12-31T08:42:03;8.10;70.40
74294;DHT22;64044;59.904;10.738;2022-12-31T08:44:51;8.10;70.30
74294;DHT22;64044;59.904;10.738;2022-12-31T08:49:51;8.20;70.00
74294;DHT22;64044;59.904;10.738;2022-12-31T08:52:24;8.20;69.80
74294;DHT22;64044;59.904;10.738;2022-12-31T08:54:51;8.20;69.80
74294;DHT22;64044;59.904;10.738;2022-12-31T09:00:22;8.20;69.70
74294;DHT22;64044;59.904;10.738;2022-12-31T09:10:31;8.30;69.30
74294;DHT22;64044;59.904;10.738;2022-12-31T09:18:49;8.30;68.90
74294;DHT22;64044;59.904;10.738;2022-12-31T09:21:15;8.30;68.80
74294;DHT22;64044;59.904;10.738;2022-12-31T09:23:41;8.30;68.70
74294;DHT22;64044;59.904;10.738;2022-12-31T09:26:32;8.30;69.40
74294;DHT22;64044;59.904;10.738;2022-12-31T09:34:54;8.30;67.90
74294;DHT22;64044;59.904;10.738;2022-12-31T09:57:39;8.50;66.90
74294;DHT22;64044;59.904;10.738;2022-12-31T10:00:16;8.50;66.80
74294;DHT22;64044;59.904;10.738;2022-12-31T10:05:41;8.50;66.70
74294;DHT22;64044;59.904;10.738;2022-12-31T10:16:41;8.90;65.70
74294;DHT22;64044;59.904;10.738;2022-12-31T10:24:58;9.20;64.20
74294;DHT22;64044;59.904;10.738;2022-12-31T10:30:32;9.30;63.60
74294;DHT22;64044;59.904;10.738;2022-12-31T10:38:47;9.70;62.80
74294;DHT22;64044;59.904;10.738;2022-12-31T10:41:27;9.80;61.60
74294;DHT22;64044;59.904;10.738;2022-12-31T10:47:06;10.10;61.40
74294;DHT22;64044;59.904;10.738;2022-12-31T10:52:14;10.50;60.30
74294;DHT22;64044;59.904;10.738;2022-12-31T10:57:33;10.60;58.80
74294;DHT22;64044;59.904;10.738;2022-12-31T11:00:21;10.70;58.80
74294;DHT22;64044;59.904;10.738;2022-12-31T11:09:40;10.90;57.50
74294;DHT22;64044;59.904;10.738;2022-12-31T11:16:07;11.20;56.60
74294;DHT22;64044;59.904;10.738;2022-12-31T11:34:30;11.90;54.40
74294;DHT22;64044;59.904;10.738;2022-12-31T11:37:53;12.00;53.90
74294;DHT22;64044;59.904;10.738;2022-12-31T11:43:26;12.30;53.90
74294;DHT22;64044;59.904;10.738;2022-12-31T11:56:52;12.50;51.90
74294;DHT22;64044;59.904;10.738;2022-12-31T11:59:20;12.40;51.20
74294;DHT22;64044;59.904;10.738;2022-12-31T12:01:57;12.30;51.10
74294;DHT22;64044;59.904;10.738;2022-12-31T12:04:25;12.20;51.30
74294;DHT22;64044;59.904;10.738;2022-12-31T12:06:51;12.10;51.20
74294;DHT22;64044;59.904;10.738;2022-12-31T12:09:31;12.10;51.60
74294;DHT22;64044;59.904;10.738;2022-12-31T12:12:01;11.90;51.10
74294;DHT22;64044;59.904;10.738;2022-12-31T12:16:58;11.70;51.10
74294;DHT22;64044;59.904;10.738;2022-12-31T12:19:27;11.60;51.60
74294;DHT22;64044;59.904;10.738;2022-12-31T12:21:55;11.50;51.00
74294;DHT22;64044;59.904;10.738;2022-12-31T12:24:26;11.50;52.00
74294;DHT22;64044;59.904;10.738;2022-12-31T12:26:52;11.50;51.80
74294;DHT22;64044;59.904;10.738;2022-12-31T12:29:27;11.50;52.30
74294;DHT22;64044;59.904;10.738;2022-12-31T12:32:03;11.60;52.50
74294;DHT22;64044;59.904;10.738;2022-12-31T12:34:40;11.70;51.60
74294;DHT22;64044;59.904;10.738;2022-12-31T12:42:50;11.70;51.30
74294;DHT22;64044;59.904;10.738;2022-12-31T12:45:19;11.50;51.20
74294;DHT22;64044;59.904;10.738;2022-12-31T12:47:48;11.50;51.90
74294;DHT22;64044;59.904;10.738;2022-12-31T12:50:16;11.40;51.50
74294;DHT22;64044;59.904;10.738;2022-12-31T12:53:12;11.30;52.00
74294;DHT22;64044;59.904;10.738;2022-12-31T12:56:00;11.20;52.10
74294;DHT22;64044;59.904;10.738;2022-12-31T13:01:40;10.80;52.50
74294;DHT22;64044;59.904;10.738;2022-12-31T13:09:49;10.30;53.70
74294;DHT22;64044;59.904;10.738;2022-12-31T13:24:21;9.70;54.80
74294;DHT22;64044;59.904;10.738;2022-12-31T13:29:41;9.60;54.60
74294;DHT22;64044;59.904;10.738;2022-12-31T13:32:14;9.60;54.50
74294;DHT22;64044;59.904;10.738;2022-12-31T13:34:42;9.60;54.50
74294;DHT22;64044;59.904;10.738;2022-12-31T13:37:38;9.60;54.60
74294;DHT22;64044;59.904;10.738;2022-12-31T13:40:20;9.60;54.50
74294;DHT22;64044;59.904;10.738;2022-12-31T13:42:59;9.60;54.50
74294;DHT22;64044;59.904;10.738;2022-12-31T13:45:38;9.60;55.20
74294;DHT22;64044;59.904;10.738;2022-12-31T13:48:13;9.60;54.40
74294;DHT22;64044;59.904;10.738;2022-12-31T13:51:00;9.60;54.60
74294;DHT22;64044;59.904;10.738;2022-12-31T13:53:41;9.50;54.90
74294;DHT22;64044;59.904;10.738;2022-12-31T13:56:21;9.50;54.90
74294;DHT22;64044;59.904;10.738;2022-12-31T14:01:51;9.40;55.20
74294;DHT22;64044;59.904;10.738;2022-12-31T14:04:36;9.30;55.10
74294;DHT22;64044;59.904;10.738;2022-12-31T14:07:16;9.30;55.50
74294;DHT22;64044;59.904;10.738;2022-12-31T14:09:42;9.30;55.60
74294;DHT22;64044;59.904;10.738;2022-12-31T14:21:33;9.10;55.50
74294;DHT22;64044;59.904;10.738;2022-12-31T14:26:31;9.00;55.90
74294;DHT22;64044;59.904;10.738;2022-12-31T14:37:41;8.80;56.60
74294;DHT22;64044;59.904;10.738;2022-12-31T14:43:35;8.70;56.80
74294;DHT22;64044;59.904;10.738;2022-12-31T14:48:54;8.60;57.40
74294;DHT22;64044;59.904;10.738;2022-12-31T14:51:27;8.50;57.50
74294;DHT22;64044;59.904;10.738;2022-12-31T14:53:55;8.50;57.50
74294;DHT22;64044;59.904;10.738;2022-12-31T14:56:41;8.50;57.60
74294;DHT22;64044;59.904;10.738;2022-12-31T14:59:26;8.40;57.30
74294;DHT22;64044;59.904;10.738;2022-12-31T15:01:52;8.30;57.30
74294;DHT22;64044;59.904;10.738;2022-12-31T15:04:41;8.40;57.20
74294;DHT22;64044;59.904;10.738;2022-12-31T15:07:28;8.30;57.40
74294;DHT22;64044;59.904;10.738;2022-12-31T15:13:06;8.30;57.10
74294;DHT22;64044;59.904;10.738;2022-12-31T15:21:10;8.20;56.70
74294;DHT22;64044;59.904;10.738;2022-12-31T15:23:39;8.20;57.20
74294;DHT22;64044;59.904;10.738;2022-12-31T15:26:20;8.20;57.20
74294;DHT22;64044;59.904;10.738;2022-12-31T15:29:02;8.20;57.00
74294;DHT22;64044;59.904;10.738;2022-12-31T15:31:28;8.20;57.00
74294;DHT22;64044;59.904;10.738;2022-12-31T15:36:36;8.10;56.80
74294;DHT22;64044;59.904;10.738;2022-12-31T15:41:39;8.10;56.80
74294;DHT22;64044;59.904;10.738;2022-12-31T15:46:56;8.00;57.60
74294;DHT22;64044;59.904;10.738;2022-12-31T15:49:24;7.90;57.70
74294;DHT22;64044;59.904;10.738;2022-12-31T15:52:02;7.90;57.90
74294;DHT22;64044;59.904;10.738;2022-12-31T15:57:17;7.80;57.90
74294;DHT22;64044;59.904;10.738;2022-12-31T15:59:43;7.80;58.00
74294;DHT22;64044;59.904;10.738;2022-12-31T16:02:22;7.70;58.10
74294;DHT22;64044;59.904;10.738;2022-12-31T16:04:49;7.70;58.20
74294;DHT22;64044;59.904;10.738;2022-12-31T16:07:16;7.60;58.30
74294;DHT22;64044;59.904;10.738;2022-12-31T16:09:42;7.60;58.40
74294;DHT22;64044;59.904;10.738;2022-12-31T16:12:19;7.60;58.50
74294;DHT22;64044;59.904;10.738;2022-12-31T16:14:49;7.50;58.60
74294;DHT22;64044;59.904;10.738;2022-12-31T16:19:54;7.40;57.90
74294;DHT22;64044;59.904;10.738;2022-12-31T16:22:36;7.40;58.00
74294;DHT22;64044;59.904;10.738;2022-12-31T16:25:03;7.40;57.50
74294;DHT22;64044;59.904;10.738;2022-12-31T16:27:29;7.40;57.60
74294;DHT22;64044;59.904;10.738;2022-12-31T16:30:03;7.40;57.70
74294;DHT22;64044;59.904;10.738;2022-12-31T16:32:38;7.40;58.20
74294;DHT22;64044;59.904;10.738;2022-12-31T16:35:25;7.40;58.50
74294;DHT22;64044;59.904;10.738;2022-12-31T16:38:11;7.40;58.80
74294;DHT22;64044;59.904;10.738;2022-12-31T16:40:38;7.30;59.00
74294;DHT22;64044;59.904;10.738;2022-12-31T16:43:22;7.30;58.90
74294;DHT22;64044;59.904;10.738;2022-12-31T16:45:48;7.20;59.00
74294;DHT22;64044;59.904;10.738;2022-12-31T16:48:16;7.20;59.00
74294;DHT22;64044;59.904;10.738;2022-12-31T16:50:44;7.10;59.00
74294;DHT22;64044;59.904;10.738;2022-12-31T16:53:11;7.10;59.10
74294;DHT22;64044;59.904;10.738;2022-12-31T16:55:39;7.00;59.20
74294;DHT22;64044;59.904;10.738;2022-12-31T16:58:18;7.00;59.20
74294;DHT22;64044;59.904;10.738;2022-12-31T17:00:46;6.90;58.90
74294;DHT22;64044;59.904;10.738;2022-12-31T17:03:22;6.90;58.80
74294;DHT22;64044;59.904;10.738;2022-12-31T17:05:55;6.80;58.60
74294;DHT22;64044;59.904;10.738;2022-12-31T17:08:27;6.70;58.60
74294;DHT22;64044;59.904;10.738;2022-12-31T17:10:54;6.70;58.70
74294;DHT22;64044;59.904;10.738;2022-12-31T17:13:24;6.60;58.90
74294;DHT22;64044;59.904;10.738;2022-12-31T17:15:52;6.50;59.00
74294;DHT22;64044;59.904;10.738;2022-12-31T17:18:22;6.50;59.10
74294;DHT22;64044;59.904;10.738;2022-12-31T17:20:49;6.50;59.20
74294;DHT22;64044;59.904;10.738;2022-12-31T17:23:27;6.40;59.20
74294;DHT22;64044;59.904;10.738;2022-12-31T17:26:14;6.40;59.20
74294;DHT22;64044;59.904;10.738;2022-12-31T17:28:50;6.40;59.10
74294;DHT22;64044;59.904;10.738;2022-12-31T17:31:39;6.40;59.30
74294;DHT22;64044;59.904;10.738;2022-12-31T17:34:20;6.30;58.90
74294;DHT22;64044;59.904;10.738;2022-12-31T17:36:55;6.30;59.20
74294;DHT22;64044;59.904;10.738;2022-12-31T17:39:22;6.30;59.20
74294;DHT22;64044;59.904;10.738;2022-12-31T17:41:50;6.30;59.20
74294;DHT22;64044;59.904;10.738;2022-12-31T17:44:22;6.20;59.10
74294;DHT22;64044;59.904;10.738;2022-12-31T17:46:50;6.20;59.70
74294;DHT22;64044;59.904;10.738;2022-12-31T17:49:16;6.10;59.20
74294;DHT22;64044;59.904;10.738;2022-12-31T17:51:42;6.10;59.20
74294;DHT22;64044;59.904;10.738;2022-12-31T17:54:17;6.00;59.20
74294;DHT22;64044;59.904;10.738;2022-12-31T17:56:43;6.00;59.10
74294;DHT22;64044;59.904;10.738;2022-12-31T17:59:17;5.90;59.20
74294;DHT22;64044;59.904;10.738;2022-12-31T18:01:45;5.90;59.20
74294;DHT22;64044;59.904;10.738;2022-12-31T18:04:12;5.80;59.20
74294;DHT22;64044;59.904;10.738;2022-12-31T18:06:38;5.70;59.30
74294;DHT22;64044;59.904;10.738;2022-12-31T18:09:04;5.70;59.40
74294;DHT22;64044;59.904;10.738;2022-12-31T18:11:30;5.60;59.40
74294;DHT22;64044;59.904;10.738;2022-12-31T18:13:56;5.60;59.50
74294;DHT22;64044;59.904;10.738;2022-12-31T18:16:22;5.50;59.70
74294;DHT22;64044;59.904;10.738;2022-12-31T18:18:48;5.50;60.00
74294;DHT22;64044;59.904;10.738;2022-12-31T18:21:21;5.50;60.00
74294;DHT22;64044;59.904;10.738;2022-12-31T18:23:49;5.40;60.00
74294;DHT22;64044;59.904;10.738;2022-12-31T18:26:20;5.40;60.00
74294;DHT22;64044;59.904;10.738;2022-12-31T18:28:47;5.40;60.10
74294;DHT22;64044;59.904;10.738;2022-12-31T18:31:24;5.30;61.00
74294;DHT22;64044;59.904;10.738;2022-12-31T18:33:52;5.20;60.30
74294;DHT22;64044;59.904;10.738;2022-12-31T18:36:19;5.20;60.40
74294;DHT22;64044;59.904;10.738;2022-12-31T18:38:45;5.10;60.40
74294;DHT22;64044;59.904;10.738;2022-12-31T18:41:23;5.10;60.60
74294;DHT22;64044;59.904;10.738;2022-12-31T18:43:51;5.00;60.70
74294;DHT22;64044;59.904;10.738;2022-12-31T18:46:22;5.00;60.80
74294;DHT22;64044;59.904;10.738;2022-12-31T18:48:48;4.90;61.00
74294;DHT22;64044;59.904;10.738;2022-12-31T18:51:17;4.90;61.10
74294;DHT22;64044;59.904;10.738;2022-12-31T18:53:43;4.80;61.30
74294;DHT22;64044;59.904;10.738;2022-12-31T18:56:15;4.80;61.40
74294;DHT22;64044;59.904;10.738;2022-12-31T18:58:41;4.80;61.60
74294;DHT22;64044;59.904;10.738;2022-12-31T19:01:33;4.80;61.60
74294;DHT22;64044;59.904;10.738;2022-12-31T19:04:01;4.70;61.80
74294;DHT22;64044;59.904;10.738;2022-12-31T19:06:28;4.70;61.50
74294;DHT22;64044;59.904;10.738;2022-12-31T19:08:54;4.70;61.70
74294;DHT22;64044;59.904;10.738;2022-12-31T19:11:21;4.70;61.70
74294;DHT22;64044;59.904;10.738;2022-12-31T19:13:47;4.60;61.80
74294;DHT22;64044;59.904;10.738;2022-12-31T19:16:14;4.60;62.00
74294;DHT22;64044;59.904;10.738;2022-12-31T19:18:41;4.50;62.30
74294;DHT22;64044;59.904;10.738;2022-12-31T19:21:14;4.50;62.70
74294;DHT22;64044;59.904;10.738;2022-12-31T19:23:41;4.40;63.00
74294;DHT22;64044;59.904;10.738;2022-12-31T19:26:11;4.40;63.10
74294;DHT22;64044;59.904;10.738;2022-12-31T19:28:38;4.40;63.30
74294;DHT22;64044;59.904;10.738;2022-12-31T19:31:04;4.40;63.30
74294;DHT22;64044;59.904;10.738;2022-12-31T19:33:29;4.30;63.40
74294;DHT22;64044;59.904;10.738;2022-12-31T19:35:55;4.30;63.40
74294;DHT22;64044;59.904;10.738;2022-12-31T19:38:23;4.20;63.40
74294;DHT22;64044;59.904;10.738;2022-12-31T19:40:51;4.20;63.40
74294;DHT22;64044;59.904;10.738;2022-12-31T19:43:19;4.10;63.40
74294;DHT22;64044;59.904;10.738;2022-12-31T19:45:45;4.10;63.50
74294;DHT22;64044;59.904;10.738;2022-12-31T19:48:14;4.00;63.60
74294;DHT22;64044;59.904;10.738;2022-12-31T19:50:42;3.90;63.80
74294;DHT22;64044;59.904;10.738;2022-12-31T19:53:11;3.90;63.90
74294;DHT22;64044;59.904;10.738;2022-12-31T19:55:37;3.80;64.00
74294;DHT22;64044;59.904;10.738;2022-12-31T19:58:04;3.70;64.00
74294;DHT22;64044;59.904;10.738;2022-12-31T20:00:30;3.70;64.30
74294;DHT22;64044;59.904;10.738;2022-12-31T20:02:55;3.60;64.50
74294;DHT22;64044;59.904;10.738;2022-12-31T20:05:21;3.60;64.60
74294;DHT22;64044;59.904;10.738;2022-12-31T20:07:47;3.50;64.60
74294;DHT22;64044;59.904;10.738;2022-12-31T20:10:13;3.50;64.70
74294;DHT22;64044;59.904;10.738;2022-12-31T20:12:39;3.40;65.00
74294;DHT22;64044;59.904;10.738;2022-12-31T20:15:05;3.40;65.40
74294;DHT22;64044;59.904;10.738;2022-12-31T20:17:32;3.30;65.20
74294;DHT22;64044;59.904;10.738;2022-12-31T20:19:57;3.30;65.40
74294;DHT22;64044;59.904;10.738;2022-12-31T20:22:23;3.30;65.50
74294;DHT22;64044;59.904;10.738;2022-12-31T20:24:49;3.20;65.60
74294;DHT22;64044;59.904;10.738;2022-12-31T20:27:15;3.20;66.10
74294;DHT22;64044;59.904;10.738;2022-12-31T20:29:41;3.20;66.10